createdAt,value
2019-05-19T00:00:24.802Z,0
2019-05-19T00:01:36.712Z,0.2
2019-05-19T00:02:49.051Z,0
2019-05-19T00:03:24.728Z,0
2019-05-19T00:04:36.791Z,0
2019-05-19T00:05:48.845Z,0
2019-05-19T00:06:24.704Z,0
2019-05-19T00:07:36.776Z,0
2019-05-19T00:08:48.683Z,0
2019-05-19T00:09:24.775Z,0
2019-05-19T00:10:36.749Z,0
2019-05-19T00:11:48.768Z,0
2019-05-19T00:12:24.735Z,0
2019-05-19T00:13:36.682Z,0
2019-05-19T00:14:48.756Z,0
2019-05-19T00:15:24.775Z,0
2019-05-19T00:16:36.783Z,0
2019-05-19T00:17:48.710Z,0
2019-05-19T00:18:24.693Z,0
2019-05-19T00:19:36.735Z,0
2019-05-19T00:20:48.708Z,0
2019-05-19T00:21:24.782Z,0
2019-05-19T00:22:36.745Z,0
2019-05-19T00:23:48.769Z,0
2019-05-19T00:24:24.739Z,0
2019-05-19T00:25:36.775Z,0
2019-05-19T00:26:48.799Z,0
2019-05-19T00:27:24.698Z,0
2019-05-19T00:28:36.749Z,0
2019-05-19T00:29:48.677Z,0
2019-05-19T00:30:24.768Z,0
2019-05-19T00:31:36.741Z,0
2019-05-19T00:32:48.846Z,0
2019-05-19T00:33:24.748Z,0
2019-05-19T00:34:36.675Z,0
2019-05-19T00:35:48.750Z,0
2019-05-19T00:36:24.730Z,0
2019-05-19T00:37:36.813Z,0
2019-05-19T00:38:48.739Z,0
2019-05-19T00:39:24.844Z,0
2019-05-19T00:40:36.738Z,0
2019-05-19T00:41:48.676Z,0
2019-05-19T00:42:24.850Z,0
2019-05-19T00:43:36.698Z,0
2019-05-19T00:44:48.760Z,0
2019-05-19T00:45:24.748Z,0
2019-05-19T00:46:36.660Z,0
2019-05-19T00:47:48.775Z,0
2019-05-19T00:48:24.700Z,0
2019-05-19T00:49:42.426Z,0
2019-05-19T00:50:48.706Z,0
2019-05-19T00:51:24.674Z,0
2019-05-19T00:52:36.728Z,0
2019-05-19T00:53:48.674Z,0
2019-05-19T00:54:24.758Z,0
2019-05-19T00:55:36.683Z,0
2019-05-19T00:56:48.740Z,0
2019-05-19T00:57:24.717Z,0
2019-05-19T00:58:36.651Z,0
2019-05-19T00:59:48.719Z,0
2019-05-19T01:00:24.699Z,0
2019-05-19T01:01:36.744Z,0
2019-05-19T01:02:48.723Z,0
2019-05-19T01:03:24.654Z,0
2019-05-19T01:04:36.728Z,0
2019-05-19T01:05:48.709Z,0
2019-05-19T01:06:24.774Z,0
2019-05-19T01:07:36.710Z,0
2019-05-19T01:08:48.738Z,0
2019-05-19T01:09:24.720Z,0
2019-05-19T01:10:36.766Z,0
2019-05-19T01:11:48.697Z,0
2019-05-19T01:12:24.665Z,0
2019-05-19T01:13:36.727Z,0
2019-05-19T01:14:16.106Z,0
2019-05-19T01:15:24.777Z,0
2019-05-19T01:16:36.688Z,0
2019-05-19T01:17:48.746Z,0
2019-05-19T01:18:24.728Z,0
2019-05-19T01:19:36.654Z,0
2019-05-19T01:20:48.730Z,0
2019-05-19T01:21:24.713Z,0
2019-05-19T01:22:36.841Z,0
2019-05-19T01:23:48.699Z,0
2019-05-19T01:24:24.693Z,0
2019-05-19T01:25:36.738Z,0
2019-05-19T01:26:48.670Z,0
2019-05-19T01:27:24.728Z,0
2019-05-19T01:28:36.658Z,0
2019-05-19T01:29:48.735Z,0
2019-05-19T01:30:24.727Z,0
2019-05-19T01:31:36.674Z,0.4
2019-05-19T01:32:48.698Z,0.4
2019-05-19T01:33:24.771Z,0.6
2019-05-19T01:34:36.737Z,0
2019-05-19T01:35:48.697Z,0
2019-05-19T01:36:24.636Z,0
2019-05-19T01:37:36.706Z,0.2
2019-05-19T01:38:48.684Z,0
2019-05-19T01:39:24.864Z,0
2019-05-19T01:40:36.686Z,0
2019-05-19T01:41:48.725Z,0
2019-05-19T01:42:24.714Z,0.2
2019-05-19T01:43:36.620Z,0
2019-05-19T01:44:48.718Z,0
2019-05-19T01:45:24.672Z,0
2019-05-19T01:46:36.758Z,0
2019-05-19T01:47:48.671Z,0
2019-05-19T01:48:26.420Z,0
2019-05-19T01:49:42.553Z,0
2019-05-19T01:50:19.457Z,0
2019-05-19T01:51:24.709Z,0
2019-05-19T01:52:36.649Z,0
2019-05-19T01:53:12.738Z,0
2019-05-19T01:54:24.675Z,0
2019-05-19T01:55:36.858Z,0
2019-05-19T01:56:12.688Z,0
2019-05-19T01:57:24.633Z,0
2019-05-19T01:58:36.708Z,0
2019-05-19T01:59:12.662Z,0
2019-05-19T02:00:24.714Z,0
2019-05-19T02:01:36.676Z,0
2019-05-19T02:02:12.629Z,0
2019-05-19T02:03:24.701Z,0
2019-05-19T02:04:36.621Z,0
2019-05-19T02:05:12.821Z,0
2019-05-19T02:06:24.669Z,0
2019-05-19T02:07:36.925Z,0
2019-05-19T02:08:12.743Z,0
2019-05-19T02:09:24.947Z,0
2019-05-19T02:10:36.674Z,0
2019-05-19T02:11:12.679Z,0
2019-05-19T02:12:24.714Z,0
2019-05-19T02:13:36.651Z,0
2019-05-19T02:14:12.616Z,0
2019-05-19T02:15:24.676Z,0
2019-05-19T02:16:36.728Z,0.2
2019-05-19T02:17:12.765Z,0.2
2019-05-19T02:18:24.679Z,0
2019-05-19T02:19:36.738Z,0
2019-05-19T02:20:12.698Z,0
2019-05-19T02:21:24.606Z,0
2019-05-19T02:22:36.720Z,0
2019-05-19T02:23:12.675Z,0
2019-05-19T02:24:24.740Z,0.2
2019-05-19T02:25:36.668Z,0
2019-05-19T02:26:12.736Z,0
2019-05-19T02:27:24.664Z,0
2019-05-19T02:28:36.719Z,0
2019-05-19T02:29:12.707Z,0
2019-05-19T02:30:24.728Z,0
2019-05-19T02:31:36.699Z,0
2019-05-19T02:32:12.685Z,0.2
2019-05-19T02:33:24.720Z,0
2019-05-19T02:34:36.670Z,0
2019-05-19T02:35:12.649Z,0
2019-05-19T02:36:24.700Z,0.2
2019-05-19T02:37:36.664Z,0.4
2019-05-19T02:38:12.749Z,0.2
2019-05-19T02:39:24.689Z,0.8
2019-05-19T02:40:36.720Z,0.4
2019-05-19T02:41:12.724Z,0.2
2019-05-19T02:42:24.624Z,0
2019-05-19T02:43:36.677Z,0
2019-05-19T02:44:12.643Z,0
2019-05-19T02:45:24.708Z,0
2019-05-19T02:46:36.649Z,0.2
2019-05-19T02:47:12.647Z,0.4
2019-05-19T02:48:24.666Z,0.4
2019-05-19T02:49:36.625Z,0
2019-05-19T02:50:12.708Z,0
2019-05-19T02:50:53.748Z,0
2019-05-19T02:52:36.739Z,0.2
2019-05-19T02:53:12.693Z,0
2019-05-19T02:54:24.628Z,0
2019-05-19T02:55:36.656Z,0
2019-05-19T02:56:12.632Z,0
2019-05-19T02:57:24.693Z,0
2019-05-19T02:58:36.664Z,0
2019-05-19T02:59:12.598Z,0.2
2019-05-19T03:00:24.657Z,0
2019-05-19T03:01:36.587Z,0
2019-05-19T03:02:12.709Z,0
2019-05-19T03:03:24.636Z,0
2019-05-19T03:04:36.697Z,0
2019-05-19T03:05:12.704Z,0
2019-05-19T03:06:24.727Z,0
2019-05-19T03:07:36.693Z,0
2019-05-19T03:08:12.653Z,0
2019-05-19T03:09:24.704Z,0
2019-05-19T03:10:36.613Z,0
2019-05-19T03:11:12.714Z,0
2019-05-19T03:12:24.646Z,0
2019-05-19T03:13:36.709Z,0
2019-05-19T03:14:12.784Z,0
2019-05-19T03:15:24.634Z,0
2019-05-19T03:16:36.707Z,0
2019-05-19T03:17:12.660Z,0
2019-05-19T03:18:24.717Z,0
2019-05-19T03:19:36.679Z,0
2019-05-19T03:20:12.620Z,0
2019-05-19T03:21:24.688Z,0
2019-05-19T03:22:36.604Z,0
2019-05-19T03:23:12.690Z,0.4
2019-05-19T03:24:24.660Z,0
2019-05-19T03:25:36.721Z,0
2019-05-19T03:26:12.675Z,0
2019-05-19T03:27:24.607Z,0
2019-05-19T03:28:36.695Z,0
2019-05-19T03:29:12.649Z,0
2019-05-19T03:30:24.784Z,0
2019-05-19T03:31:36.768Z,0
2019-05-19T03:32:14.105Z,0
2019-05-19T03:33:24.749Z,0.2
2019-05-19T03:34:36.659Z,0
2019-05-19T03:35:24.895Z,0
2019-05-19T03:36:36.656Z,0
2019-05-19T03:37:12.632Z,0
2019-05-19T03:38:24.713Z,0
2019-05-19T03:39:36.615Z,0
2019-05-19T03:40:12.566Z,0
2019-05-19T03:41:24.640Z,0
2019-05-19T03:42:36.729Z,0
2019-05-19T03:43:12.675Z,0
2019-05-19T03:44:00.756Z,0
2019-05-19T03:44:36.653Z,0
2019-05-19T03:45:12.610Z,0
2019-05-19T03:46:24.670Z,0
2019-05-19T03:47:36.596Z,0
2019-05-19T03:48:12.713Z,0
2019-05-19T03:49:24.656Z,0
2019-05-19T03:50:36.717Z,0
2019-05-19T03:51:32.465Z,0
2019-05-19T03:52:24.631Z,0
2019-05-19T03:53:36.756Z,0
2019-05-19T03:54:12.619Z,0
2019-05-19T03:55:24.726Z,0
2019-05-19T03:56:36.624Z,0.2
2019-05-19T03:57:12.689Z,0.2
2019-05-19T03:58:24.692Z,0
2019-05-19T03:59:36.602Z,0
2019-05-19T04:00:12.685Z,0.2
2019-05-19T04:01:24.620Z,0
2019-05-19T04:02:36.672Z,0
2019-05-19T04:03:12.667Z,0
2019-05-19T04:04:24.604Z,0
2019-05-19T04:05:36.662Z,0
2019-05-19T04:06:12.607Z,0
2019-05-19T04:07:24.685Z,0.2
2019-05-19T04:08:36.596Z,0
2019-05-19T04:09:12.596Z,0.2
2019-05-19T04:10:24.642Z,0
2019-05-19T04:11:36.589Z,0
2019-05-19T04:12:12.651Z,0
2019-05-19T04:13:24.620Z,0.4
2019-05-19T04:14:36.655Z,0
2019-05-19T04:15:12.711Z,0.2
2019-05-19T04:16:24.572Z,0
2019-05-19T04:17:36.680Z,0.4
2019-05-19T04:18:12.615Z,0
2019-05-19T04:19:24.704Z,0.6
2019-05-19T04:20:36.718Z,0.2
2019-05-19T04:21:12.562Z,0.4
2019-05-19T04:22:24.639Z,0.6
2019-05-19T04:23:36.712Z,0
2019-05-19T04:24:12.733Z,0
2019-05-19T04:25:24.613Z,0.2
2019-05-19T04:26:36.782Z,0.2
2019-05-19T04:27:12.627Z,0
2019-05-19T04:28:24.692Z,0
2019-05-19T04:29:40.306Z,0.2
2019-05-19T04:30:12.593Z,0
2019-05-19T04:31:24.654Z,0
2019-05-19T04:32:36.589Z,0
2019-05-19T04:33:12.677Z,0
2019-05-19T04:34:24.614Z,0
2019-05-19T04:35:36.677Z,0.2
2019-05-19T04:36:12.652Z,0.4
2019-05-19T04:37:24.600Z,0
2019-05-19T04:38:36.636Z,0
2019-05-19T04:39:12.609Z,0
2019-05-19T04:40:24.676Z,0.4
2019-05-19T04:41:41.075Z,0
2019-05-19T04:42:12.585Z,0
2019-05-19T04:43:24.622Z,0
2019-05-19T04:44:36.564Z,0
2019-05-19T04:45:12.674Z,0
2019-05-19T04:46:24.579Z,0.4
2019-05-19T04:47:36.690Z,0.8
2019-05-19T04:48:12.652Z,0.2
2019-05-19T04:49:24.557Z,0.6
2019-05-19T04:50:36.676Z,0.4
2019-05-19T04:51:12.588Z,0.2
2019-05-19T04:52:08.140Z,0
2019-05-19T04:53:36.595Z,0.2
2019-05-19T04:54:12.573Z,0.2
2019-05-19T04:55:24.642Z,0
2019-05-19T04:56:36.547Z,0
2019-05-19T04:57:12.644Z,0.2
2019-05-19T04:58:24.579Z,0.4
2019-05-19T04:59:36.665Z,0.2
2019-05-19T05:00:12.616Z,0
2019-05-19T05:01:24.541Z,0.4
2019-05-19T05:02:36.664Z,0
2019-05-19T05:03:12.578Z,0
2019-05-19T05:04:30.368Z,0.2
2019-05-19T05:05:36.573Z,0.6
2019-05-19T05:06:12.538Z,0.6
2019-05-19T05:07:24.615Z,0.2
2019-05-19T05:08:36.562Z,0.2
2019-05-19T05:09:12.635Z,0.6
2019-05-19T05:10:24.544Z,0.6
2019-05-19T05:11:36.634Z,0.4
2019-05-19T05:12:12.605Z,0.2
2019-05-19T05:13:24.674Z,0.2
2019-05-19T05:14:36.600Z,0.4
2019-05-19T05:15:12.554Z,0.6
2019-05-19T05:16:24.634Z,0.4
2019-05-19T05:17:36.562Z,0.8
2019-05-19T05:18:12.639Z,0.4
2019-05-19T05:19:24.590Z,0.8
2019-05-19T05:20:36.632Z,0.6
2019-05-19T05:21:12.693Z,0.8
2019-05-19T05:22:24.567Z,0.4
2019-05-19T05:23:36.600Z,1.1
2019-05-19T05:24:12.637Z,1
2019-05-19T05:25:24.624Z,0.8
2019-05-19T05:26:38.075Z,0.4
2019-05-19T05:27:12.576Z,0.6
2019-05-19T05:28:24.690Z,0.8
2019-05-19T05:29:36.528Z,1
2019-05-19T05:30:12.623Z,1.1
2019-05-19T05:31:24.576Z,0.7
2019-05-19T05:32:36.689Z,0.8
2019-05-19T05:33:12.600Z,0.8
2019-05-19T05:34:24.536Z,0.8
2019-05-19T05:35:36.604Z,0.9
2019-05-19T05:36:12.553Z,0.9
2019-05-19T05:37:24.640Z,0.9
2019-05-19T05:38:36.601Z,1.1
2019-05-19T05:39:12.543Z,0.9
2019-05-19T05:40:24.586Z,1
2019-05-19T05:41:36.540Z,1.1
2019-05-19T05:42:12.607Z,0.9
2019-05-19T05:43:24.551Z,0.8
2019-05-19T05:44:36.618Z,0.8
2019-05-19T05:45:12.566Z,0.8
2019-05-19T05:46:24.518Z,0.6
2019-05-19T05:47:36.582Z,0.8
2019-05-19T05:48:12.564Z,0.6
2019-05-19T05:49:24.607Z,0.8
2019-05-19T05:50:36.534Z,0.6
2019-05-19T05:51:12.511Z,0.4
2019-05-19T05:52:39.654Z,0.8
2019-05-19T05:53:36.524Z,0.8
2019-05-19T05:54:12.612Z,0.7
2019-05-19T05:55:24.552Z,0
2019-05-19T05:56:36.581Z,0.4
2019-05-19T05:57:12.811Z,0.6
2019-05-19T05:58:24.565Z,0.8
2019-05-19T05:59:36.563Z,0.8
2019-05-19T06:00:16.196Z,0.9
2019-05-19T06:01:24.579Z,1.2
2019-05-19T06:02:36.549Z,0.9
2019-05-19T06:03:12.486Z,0.8
2019-05-19T06:04:24.547Z,0.4
2019-05-19T06:05:36.531Z,0.9
2019-05-19T06:06:12.604Z,0.8
2019-05-19T06:07:24.593Z,1
2019-05-19T06:08:36.583Z,0.8
2019-05-19T06:09:12.549Z,0.8
2019-05-19T06:10:24.477Z,0.8
2019-05-19T06:11:36.563Z,1
2019-05-19T06:12:12.563Z,0.8
2019-05-19T06:13:24.646Z,1.1
2019-05-19T06:14:36.519Z,1
2019-05-19T06:15:12.835Z,0.8
2019-05-19T06:16:24.541Z,0.4
2019-05-19T06:17:36.589Z,0.8
2019-05-19T06:18:24.588Z,0.6
2019-05-19T06:19:36.544Z,0.9
2019-05-19T06:20:12.536Z,1.2
2019-05-19T06:21:24.566Z,0.9
2019-05-19T06:22:36.539Z,1.2
2019-05-19T06:23:12.596Z,1.2
2019-05-19T06:24:24.512Z,1.1
2019-05-19T06:25:37.088Z,0.8
2019-05-19T06:26:12.552Z,0.8
2019-05-19T06:27:24.507Z,0.9
2019-05-19T06:28:36.550Z,0.8
2019-05-19T06:29:12.523Z,1
2019-05-19T06:30:24.581Z,0.6
2019-05-19T06:31:36.524Z,1
2019-05-19T06:32:12.499Z,0.6
2019-05-19T06:33:24.549Z,0.6
2019-05-19T06:34:12.546Z,0.8
2019-05-19T06:35:24.500Z,1
2019-05-19T06:36:36.570Z,0.8
2019-05-19T06:37:12.544Z,0.8
2019-05-19T06:38:24.600Z,0.9
2019-05-19T06:39:36.513Z,1
2019-05-19T06:40:12.472Z,1.3
2019-05-19T06:41:24.533Z,0.7
2019-05-19T06:42:36.503Z,1
2019-05-19T06:43:12.583Z,0.8
2019-05-19T06:44:24.624Z,0.8
2019-05-19T06:45:37.056Z,0.8
2019-05-19T06:46:12.597Z,0.8
2019-05-19T06:47:24.488Z,1.1
2019-05-19T06:48:36.621Z,1.2
2019-05-19T06:49:12.561Z,0.9
2019-05-19T06:50:24.631Z,1.4
2019-05-19T06:51:36.546Z,1.2
2019-05-19T06:52:12.625Z,1.2
2019-05-19T06:53:24.631Z,0.8
2019-05-19T06:54:36.540Z,0.8
2019-05-19T06:55:12.579Z,0.6
2019-05-19T06:56:24.551Z,1
2019-05-19T06:57:36.613Z,0.9
2019-05-19T06:58:12.632Z,0.8
2019-05-19T06:59:24.554Z,1.4
2019-05-19T07:00:36.627Z,1
2019-05-19T07:01:12.644Z,0.9
2019-05-19T07:02:24.696Z,0.9
2019-05-19T07:03:36.533Z,0.6
2019-05-19T07:04:12.638Z,0.4
2019-05-19T07:05:24.566Z,1
2019-05-19T07:06:36.565Z,0.8
2019-05-19T07:07:12.976Z,0.8
2019-05-19T07:08:24.599Z,0.8
2019-05-19T07:09:36.575Z,0.6
2019-05-19T07:10:12.600Z,0.6
2019-05-19T07:11:24.552Z,0.8
2019-05-19T07:12:36.592Z,0.4
2019-05-19T07:13:12.670Z,0.6
2019-05-19T07:14:24.555Z,0
2019-05-19T07:15:36.560Z,0.8
2019-05-19T07:16:12.574Z,0.6
2019-05-19T07:17:24.547Z,0.8
2019-05-19T07:18:36.619Z,0.8
2019-05-19T07:19:12.554Z,0.4
2019-05-19T07:20:24.544Z,0.8
2019-05-19T07:21:36.601Z,0.6
2019-05-19T07:22:12.659Z,0.4
2019-05-19T07:23:29.561Z,0.2
2019-05-19T07:24:36.572Z,0.4
2019-05-19T07:25:12.632Z,0.2
2019-05-19T07:26:36.622Z,0.6
2019-05-19T07:27:12.646Z,0.8
2019-05-19T07:28:36.557Z,0.4
2019-05-19T07:29:24.560Z,0.8
2019-05-19T07:30:36.608Z,0.8
2019-05-19T07:31:24.614Z,0.8
2019-05-19T07:32:36.592Z,0.8
2019-05-19T07:33:12.509Z,0.8
2019-05-19T07:34:24.549Z,0.8
2019-05-19T07:35:36.489Z,0.8
2019-05-19T07:36:12.636Z,0.8
2019-05-19T07:37:36.571Z,1
2019-05-19T07:38:12.596Z,1.1
2019-05-19T07:39:24.632Z,1.1
2019-05-19T07:40:36.584Z,0.8
2019-05-19T07:41:12.739Z,1
2019-05-19T07:42:36.647Z,1.1
2019-05-19T07:43:24.968Z,0.8
2019-05-19T07:44:36.611Z,0.8
2019-05-19T07:45:12.512Z,0.8
2019-05-19T07:46:24.552Z,0.8
2019-05-19T07:47:36.577Z,0.6
2019-05-19T07:48:12.642Z,0.6
2019-05-19T07:49:24.564Z,0.4
2019-05-19T07:50:39.064Z,0.8
2019-05-19T07:51:12.618Z,0.8
2019-05-19T07:52:24.524Z,0.8
2019-05-19T07:54:12.662Z,0.8
2019-05-19T07:55:12.544Z,0.9
2019-05-19T07:55:48.506Z,1
2019-05-19T07:56:24.496Z,1
2019-05-19T07:57:36.587Z,0.9
2019-05-19T07:58:12.662Z,0.8
2019-05-19T07:59:24.593Z,0.2
2019-05-19T08:00:36.538Z,0.2
2019-05-19T08:01:12.728Z,0.4
2019-05-19T08:02:24.623Z,0.4
2019-05-19T08:03:36.470Z,0.6
2019-05-19T08:04:12.590Z,0.2
2019-05-19T08:05:24.562Z,0
2019-05-19T08:06:12.536Z,0.6
2019-05-19T08:07:24.674Z,0.6
2019-05-19T08:08:36.508Z,0.6
2019-05-19T08:09:12.544Z,0.4
2019-05-19T08:10:36.672Z,0.6
2019-05-19T08:11:12.672Z,0.8
2019-05-19T08:12:24.627Z,0.8
2019-05-19T08:13:36.535Z,0.8
2019-05-19T08:14:12.527Z,0.8
2019-05-19T08:15:24.611Z,0.6
2019-05-19T08:16:36.541Z,0.8
2019-05-19T08:17:12.738Z,0.6
2019-05-19T08:18:36.573Z,0.8
2019-05-19T08:19:12.535Z,0.9
2019-05-19T08:20:00.497Z,0.7
2019-05-19T08:20:48.564Z,0.8
2019-05-19T08:21:36.566Z,0.6
2019-05-19T08:22:12.633Z,0.4
2019-05-19T08:22:52.145Z,0.6
2019-05-19T08:24:02.130Z,0.6
2019-05-19T08:25:12.581Z,0.6
2019-05-19T08:26:24.480Z,0.6
2019-05-19T08:27:12.649Z,0.6
2019-05-19T08:28:24.547Z,0.9
2019-05-19T08:29:36.541Z,0.6
2019-05-19T08:30:12.545Z,0.6
2019-05-19T08:31:24.585Z,0.6
2019-05-19T08:32:36.439Z,0.7
2019-05-19T08:33:12.841Z,0.2
2019-05-19T08:34:00.650Z,0.6
2019-05-19T08:34:36.513Z,0.8
2019-05-19T08:35:12.597Z,0.8
2019-05-19T08:36:24.657Z,0.4
2019-05-19T08:37:36.533Z,0.4
2019-05-19T08:38:12.464Z,0.4
2019-05-19T08:39:24.548Z,0.8
2019-05-19T08:40:36.508Z,0.9
2019-05-19T08:41:12.635Z,0.8
2019-05-19T08:41:54.070Z,0.6
2019-05-19T08:43:36.590Z,0.4
2019-05-19T08:44:12.763Z,0.6
2019-05-19T08:45:24.443Z,0.8
2019-05-19T08:46:36.513Z,0.4
2019-05-19T08:47:12.502Z,0.6
2019-05-19T08:48:36.494Z,0.4
2019-05-19T08:49:12.631Z,0.4
2019-05-19T08:50:24.470Z,0.6
2019-05-19T08:51:12.720Z,0.6
2019-05-19T08:52:24.536Z,0.8
2019-05-19T08:53:36.446Z,0.8
2019-05-19T08:54:19.487Z,0.8
2019-05-19T08:54:54.036Z,0.8
2019-05-19T08:56:36.456Z,0.8
2019-05-19T08:57:12.636Z,0.8
2019-05-19T08:58:24.458Z,0.8
2019-05-19T08:59:36.538Z,0.8
2019-05-19T09:00:12.521Z,0.8
2019-05-19T09:01:24.479Z,0.9
2019-05-19T09:02:36.564Z,0.6
2019-05-19T09:03:12.706Z,0.8
2019-05-19T09:04:00.493Z,0.6
2019-05-19T09:04:36.418Z,0.4
2019-05-19T09:05:12.626Z,0.6
2019-05-19T09:06:24.473Z,0.8
2019-05-19T09:07:36.542Z,0.8
2019-05-19T09:08:12.645Z,0.8
2019-05-19T09:09:36.422Z,0.8
2019-05-19T09:10:12.692Z,0.8
2019-05-19T09:11:24.519Z,0.8
2019-05-19T09:12:12.483Z,0.8
2019-05-19T09:13:24.422Z,0.8
2019-05-19T09:14:36.451Z,0.4
2019-05-19T09:15:12.424Z,0.2
2019-05-19T09:16:24.493Z,0.8
2019-05-19T09:17:36.460Z,0.2
2019-05-19T09:18:12.398Z,0.4
2019-05-19T09:19:24.456Z,0.9
2019-05-19T09:20:36.533Z,0.8
2019-05-19T09:21:12.643Z,0.6
2019-05-19T09:22:24.472Z,0.8
2019-05-19T09:23:36.563Z,0.9
2019-05-19T09:24:12.668Z,0.9
2019-05-19T09:25:24.525Z,0.8
2019-05-19T09:26:36.582Z,0.8
2019-05-19T09:27:13.204Z,0.6
2019-05-19T09:28:24.523Z,0.8
2019-05-19T09:29:36.487Z,0.8
2019-05-19T09:30:24.421Z,0.8
2019-05-19T09:31:36.510Z,0.9
2019-05-19T09:32:12.540Z,0.9
2019-05-19T09:33:00.473Z,0.9
2019-05-19T09:33:36.458Z,0.6
2019-05-19T09:34:12.500Z,0.6
2019-05-19T09:35:24.508Z,0.8
2019-05-19T09:36:12.703Z,0.8
2019-05-19T09:37:36.418Z,0.8
2019-05-19T09:38:12.632Z,0.8
2019-05-19T09:39:24.443Z,0.9
2019-05-19T09:40:36.549Z,0.8
2019-05-19T09:41:12.640Z,0.8
2019-05-19T09:42:24.406Z,0.9
2019-05-19T09:43:36.476Z,0.8
2019-05-19T09:44:12.574Z,0.8
2019-05-19T09:45:24.512Z,0.9
2019-05-19T09:46:36.440Z,0.8
2019-05-19T09:47:12.566Z,0.8
2019-05-19T09:48:24.482Z,0.9
2019-05-19T09:49:12.696Z,0.8
2019-05-19T09:50:24.486Z,0.9
2019-05-19T09:51:36.428Z,0.8
2019-05-19T09:52:17.876Z,0.9
2019-05-19T09:53:24.497Z,0.8
2019-05-19T09:54:46.638Z,0.6
2019-05-19T09:56:24.533Z,0.9
2019-05-19T09:57:36.606Z,0.8
2019-05-19T09:58:20.737Z,0.8
2019-05-19T09:59:24.424Z,0.8
2019-05-19T10:00:36.456Z,0.8
2019-05-19T10:01:12.716Z,0.6
2019-05-19T10:02:36.419Z,0.8
2019-05-19T10:03:24.474Z,0.9
2019-05-19T10:04:36.450Z,1.1
2019-05-19T10:05:12.901Z,1
2019-05-19T10:06:24.530Z,0.9
2019-05-19T10:07:36.460Z,1.1
2019-05-19T10:08:12.399Z,0.8
2019-05-19T10:09:24.463Z,0.6
2019-05-19T10:10:48.424Z,0.8
2019-05-19T10:11:24.673Z,0.8
2019-05-19T10:12:36.457Z,0.8
2019-05-19T10:13:24.469Z,0.9
2019-05-19T10:14:36.460Z,0.8
2019-05-19T10:15:24.435Z,1.1
2019-05-19T10:16:48.800Z,1.8
2019-05-19T10:17:24.455Z,1.5
2019-05-19T10:18:36.414Z,1.4
2019-05-19T10:19:12.721Z,1.3
2019-05-19T10:20:24.414Z,1.4
2019-05-19T10:21:24.501Z,1.6
2019-05-19T10:22:12.732Z,1.7
2019-05-19T10:22:48.469Z,1.4
2019-05-19T10:23:24.392Z,0.6
2019-05-19T10:24:36.551Z,0.9
2019-05-19T10:25:24.677Z,0.9
2019-05-19T10:26:36.443Z,1
2019-05-19T10:27:48.431Z,1.5
2019-05-19T10:28:24.417Z,1.2
2019-05-19T10:29:12.689Z,0.8
2019-05-19T10:29:48.391Z,0.8
2019-05-19T10:30:24.493Z,0.8
2019-05-19T10:31:36.385Z,0.9
2019-05-19T10:32:48.538Z,1.1
2019-05-19T10:33:24.419Z,0.8
2019-05-19T10:34:36.396Z,1.1
2019-05-19T10:35:24.432Z,0.8
2019-05-19T10:36:48.455Z,0.9
2019-05-19T10:37:36.530Z,1.3
2019-05-19T10:38:36.508Z,1.4
2019-05-19T10:39:12.466Z,0.9
2019-05-19T10:40:00.461Z,0.8
2019-05-19T10:40:36.408Z,0.8
2019-05-19T10:42:00.488Z,1
2019-05-19T10:43:00.449Z,1.8
2019-05-19T10:43:36.766Z,1.8
2019-05-19T10:44:12.490Z,1.7
2019-05-19T10:45:24.398Z,1.2
2019-05-19T10:46:00.475Z,1.8
2019-05-19T10:47:12.703Z,0.9
2019-05-19T10:48:36.887Z,1.1
2019-05-19T10:49:12.519Z,1.2
2019-05-19T10:50:00.430Z,0.9
2019-05-19T10:50:48.398Z,0.8
2019-05-19T10:51:24.474Z,0.8
2019-05-19T10:52:00.436Z,0.8
2019-05-19T10:52:48.503Z,0.8
2019-05-19T10:53:24.429Z,0.8
2019-05-19T10:54:00.368Z,0.8
2019-05-19T10:55:12.570Z,0.9
2019-05-19T10:56:24.344Z,1
2019-05-19T10:57:24.456Z,0.8
2019-05-19T10:58:48.390Z,0.8
2019-05-19T10:59:24.453Z,0.8
2019-05-19T11:00:00.612Z,0.8
2019-05-19T11:01:12.610Z,1.2
2019-05-19T11:02:12.686Z,0.9
2019-05-19T11:02:48.355Z,0.9
2019-05-19T11:03:36.418Z,0.8
2019-05-19T11:04:12.697Z,0.8
2019-05-19T11:05:24.386Z,0.9
2019-05-19T11:06:36.431Z,0.8
2019-05-19T11:07:24.454Z,1
2019-05-19T11:08:36.386Z,1
2019-05-19T11:09:12.890Z,1.1
2019-05-19T11:10:24.495Z,0.9
2019-05-19T11:11:12.554Z,0.9
2019-05-19T11:12:24.459Z,0.6
2019-05-19T11:14:00.331Z,0.8
2019-05-19T11:14:48.360Z,0.8
2019-05-19T11:15:24.538Z,0.8
2019-05-19T11:16:00.397Z,0.9
2019-05-19T11:16:48.426Z,0.9
2019-05-19T11:17:24.358Z,1.1
2019-05-19T11:18:00.494Z,1.3
2019-05-19T11:18:48.474Z,1.2
2019-05-19T11:19:36.470Z,0.8
2019-05-19T11:20:12.708Z,0.8
2019-05-19T11:21:24.368Z,0.8
2019-05-19T11:22:12.382Z,0.8
2019-05-19T11:23:00.369Z,0.9
2019-05-19T11:23:48.353Z,1.1
2019-05-19T11:24:24.444Z,1.5
2019-05-19T11:25:35.079Z,1.4
2019-05-19T11:26:24.552Z,0.9
2019-05-19T11:27:00.370Z,0.9
2019-05-19T11:27:36.564Z,0.8
2019-05-19T11:28:48.427Z,1
2019-05-19T11:29:24.412Z,1.2
2019-05-19T11:30:36.495Z,0.8
2019-05-19T11:31:48.468Z,0.4
2019-05-19T11:32:24.486Z,0.8
2019-05-19T11:33:48.424Z,1
2019-05-19T11:34:24.462Z,0.6
2019-05-19T11:35:36.484Z,1
2019-05-19T11:36:48.673Z,1.3
2019-05-19T11:37:24.358Z,0.9
2019-05-19T11:38:36.392Z,1.1
2019-05-19T11:39:48.360Z,0.4
2019-05-19T11:40:24.488Z,0.6
2019-05-19T11:41:36.421Z,1.2
2019-05-19T11:42:48.442Z,1.4
2019-05-19T11:43:24.453Z,1.8
2019-05-19T11:44:36.354Z,1.5
2019-05-19T11:45:48.402Z,1.6
2019-05-19T11:46:24.349Z,1.1
2019-05-19T11:48:12.530Z,1.6
2019-05-19T11:48:48.364Z,1
2019-05-19T11:49:24.335Z,0.4
2019-05-19T11:50:36.529Z,1
2019-05-19T11:51:12.606Z,1.6
2019-05-19T11:52:00.448Z,1
2019-05-19T11:52:36.374Z,1.2
2019-05-19T11:53:12.656Z,2
2019-05-19T11:54:24.377Z,1.2
2019-05-19T11:55:36.468Z,1.1
2019-05-19T11:56:12.650Z,0.9
2019-05-19T11:57:24.436Z,1.1
2019-05-19T11:58:36.436Z,0.9
2019-05-19T11:59:12.888Z,0.8
2019-05-19T12:00:24.396Z,0.9
2019-05-19T12:01:36.362Z,0.8
2019-05-19T12:02:12.704Z,0.8
2019-05-19T12:03:24.410Z,1.4
2019-05-19T12:04:36.848Z,0.8
2019-05-19T12:05:12.383Z,0.8
2019-05-19T12:06:40.683Z,0.8
2019-05-19T12:07:36.478Z,0.8
2019-05-19T12:08:12.875Z,0.8
2019-05-19T12:09:24.518Z,0.6
2019-05-19T12:10:36.383Z,1.1
2019-05-19T12:11:36.466Z,0.8
2019-05-19T12:12:12.606Z,0.8
2019-05-19T12:12:48.355Z,0.8
2019-05-19T12:14:00.406Z,0.6
2019-05-19T12:14:36.431Z,0.6
2019-05-19T12:15:24.371Z,0.8
2019-05-19T12:16:12.636Z,0.8
2019-05-19T12:17:24.413Z,0.8
2019-05-19T12:18:00.406Z,0.8
2019-05-19T12:18:36.618Z,0.8
2019-05-19T12:19:48.498Z,0.6
2019-05-19T12:20:24.393Z,0.8
2019-05-19T12:21:36.362Z,0.8
2019-05-19T12:22:48.429Z,0.8
2019-05-19T12:23:24.342Z,0.6
2019-05-19T12:24:36.429Z,0.9
2019-05-19T12:25:48.362Z,0.9
2019-05-19T12:26:24.651Z,0.4
2019-05-19T12:27:36.402Z,0.2
2019-05-19T12:28:48.466Z,0.9
2019-05-19T12:29:24.453Z,0.8
2019-05-19T12:30:36.522Z,0.8
2019-05-19T12:31:24.352Z,0.9
2019-05-19T12:32:36.553Z,0.4
2019-05-19T12:33:53.102Z,0.6
2019-05-19T12:34:24.452Z,0.8
2019-05-19T12:35:36.746Z,0.8
2019-05-19T12:36:48.507Z,0.8
2019-05-19T12:37:24.409Z,0.8
2019-05-19T12:38:36.320Z,0.8
2019-05-19T12:39:48.436Z,0.6
2019-05-19T12:40:24.375Z,0.8
2019-05-19T12:41:36.437Z,0.8
2019-05-19T12:42:48.357Z,0.6
2019-05-19T12:43:24.338Z,0.8
2019-05-19T12:44:36.428Z,0.8
2019-05-19T12:45:48.511Z,0.8
2019-05-19T12:46:24.463Z,0.6
2019-05-19T12:47:36.372Z,0.9
2019-05-19T12:49:00.390Z,0.6
2019-05-19T12:49:36.454Z,0.4
2019-05-19T12:50:48.372Z,0.6
2019-05-19T12:51:27.720Z,0.2
2019-05-19T12:52:36.395Z,0.8
2019-05-19T12:53:48.316Z,0.2
2019-05-19T12:54:24.527Z,0.2
2019-05-19T12:55:36.371Z,0.6
2019-05-19T12:56:48.530Z,0.8
2019-05-19T12:57:24.394Z,0.9
2019-05-19T12:58:36.427Z,0.8
2019-05-19T12:59:48.362Z,0.6
2019-05-19T13:00:24.374Z,0.6
2019-05-19T13:01:36.402Z,0.8
2019-05-19T13:02:48.327Z,0.6
2019-05-19T13:03:24.435Z,0.4
2019-05-19T13:04:36.444Z,0.4
2019-05-19T13:05:48.447Z,0.4
2019-05-19T13:06:24.404Z,0.8
2019-05-19T13:07:36.393Z,0.8
2019-05-19T13:08:48.422Z,0.4
2019-05-19T13:09:24.347Z,0.7
2019-05-19T13:10:36.433Z,0.4
2019-05-19T13:11:48.370Z,0.6
2019-05-19T13:12:24.325Z,0.6
2019-05-19T13:13:36.393Z,0.7
2019-05-19T13:14:48.344Z,0.4
2019-05-19T13:15:24.586Z,0.8
2019-05-19T13:16:36.374Z,0.8
2019-05-19T13:17:48.431Z,0.6
2019-05-19T13:18:24.486Z,0.6
2019-05-19T13:19:36.463Z,0.8
2019-05-19T13:20:48.394Z,1
2019-05-19T13:21:24.393Z,0.9
2019-05-19T13:22:36.462Z,0.8
2019-05-19T13:23:48.452Z,0.8
2019-05-19T13:24:24.343Z,0.9
2019-05-19T13:25:36.578Z,0.8
2019-05-19T13:26:57.647Z,0.8
2019-05-19T13:27:24.405Z,0.8
2019-05-19T13:28:00.380Z,0.8
2019-05-19T13:29:12.452Z,0.4
2019-05-19T13:29:48.414Z,0.6
2019-05-19T13:31:00.440Z,0.4
2019-05-19T13:32:12.416Z,0.9
2019-05-19T13:32:48.371Z,1
2019-05-19T13:34:00.347Z,0.8
2019-05-19T13:35:12.392Z,0.8
2019-05-19T13:35:48.315Z,0.6
2019-05-19T13:37:00.405Z,0.8
2019-05-19T13:38:12.334Z,0.9
2019-05-19T13:38:48.432Z,0.8
2019-05-19T13:40:00.447Z,1
2019-05-19T13:41:12.464Z,0.8
2019-05-19T13:41:48.424Z,0.8
2019-05-19T13:43:00.360Z,0.8
2019-05-19T13:44:12.710Z,0.6
2019-05-19T13:44:48.367Z,0.2
2019-05-19T13:46:00.422Z,0.6
2019-05-19T13:47:12.356Z,0.8
2019-05-19T13:47:48.302Z,0.8